Time;durP1;ratioP1;P1;durP2;ratioP2;P2;SDS_P1;SDS_P2;PMS_P1;PMS_P2;Temp;Humidity;BMP_temperature;BMP_pressure;BME280_temperature;BME280_humidity;BME280_pressure;Samples;Min_cycle;Max_cycle;Signal;HPM_P1;HPM_P2
2021/07/16 00:01:53;;;;;;;;;;;17.00;99.90;;;;;;5090643;28;19924;-90
2021/07/16 00:04:19;;;;;;;;;;;17.00;99.90;;;;;;5075087;28;19923;-89
2021/07/16 00:06:45;;;;;;;;;;;17.00;99.90;;;;;;5073826;28;19994;-89
2021/07/16 00:09:11;;;;;;;;;;;17.00;99.90;;;;;;5083367;28;19931;-89
2021/07/16 00:11:36;;;;;;;;;;;17.00;99.90;;;;;;5074344;28;20010;-89
2021/07/16 00:14:03;;;;;;;;;;;17.00;99.90;;;;;;5092871;28;19924;-89
2021/07/16 00:16:29;;;;;;;;;;;17.00;99.90;;;;;;5076964;28;19968;-89
2021/07/16 00:18:55;;;;;;;;;;;17.00;99.90;;;;;;5091966;28;19955;-91
2021/07/16 00:21:20;;;;;;;;;;;17.00;99.90;;;;;;5057401;28;20019;-90
2021/07/16 00:23:46;;;;;;;;;;;17.00;99.90;;;;;;5090899;28;19928;-89
2021/07/16 00:26:13;;;;;;;;;;;17.00;99.90;;;;;;5074240;28;20363;-89
2021/07/16 00:28:38;;;;;;;;;;;17.00;99.90;;;;;;5073912;28;19924;-88
2021/07/16 00:31:04;;;;;;;;;;;16.90;99.90;;;;;;5092326;28;20349;-89
2021/07/16 00:33:30;;;;;;;;;;;17.00;99.90;;;;;;5090782;28;19970;-89
2021/07/16 00:35:55;;;;;;;;;;;17.00;99.90;;;;;;5090501;28;19939;-89
2021/07/16 00:38:21;;;;;;;;;;;16.90;99.90;;;;;;5092084;28;19924;-88
2021/07/16 00:40:47;;;;;;;;;;;17.00;99.90;;;;;;5091058;28;19966;-90
2021/07/16 00:43:13;;;;;;;;;;;17.00;99.90;;;;;;5093368;28;19995;-92
2021/07/16 00:45:39;;;;;;;;;;;17.00;99.90;;;;;;5075298;28;20006;-91
2021/07/16 00:48:05;;;;;;;;;;;17.00;99.90;;;;;;5092901;28;20351;-93
2021/07/16 00:50:35;;;;;;;;;;;17.00;99.90;;;;;;5054986;28;19969;-90
2021/07/16 00:53:04;;;;;;;;;;;17.00;99.90;;;;;;5083391;28;19974;-89
2021/07/16 00:55:30;;;;;;;;;;;17.00;99.90;;;;;;5092519;28;20015;-89
2021/07/16 00:57:56;;;;;;;;;;;17.00;99.90;;;;;;5066989;28;19963;-89
2021/07/16 01:00:22;;;;;;;;;;;17.00;99.90;;;;;;5074117;28;19990;-89
2021/07/16 01:02:48;;;;;;;;;;;17.00;99.90;;;;;;5073513;28;19932;-89
2021/07/16 01:05:18;;;;;;;;;;;17.00;99.90;;;;;;5092095;28;19931;-89
2021/07/16 01:07:44;;;;;;;;;;;17.00;99.90;;;;;;5073588;28;20269;-89
2021/07/16 01:10:11;;;;;;;;;;;17.00;99.90;;;;;;5045991;28;20372;-89
2021/07/16 01:12:41;;;;;;;;;;;17.00;99.90;;;;;;5088444;28;19931;-89
2021/07/16 01:15:07;;;;;;;;;;;17.00;99.90;;;;;;5073804;28;19931;-88
2021/07/16 01:17:33;;;;;;;;;;;17.00;99.90;;;;;;5073641;28;19955;-89
2021/07/16 01:20:18;;;;;;;;;;;17.00;99.90;;;;;;5089947;28;20677;-90
2021/07/16 01:22:45;;;;;;;;;;;17.00;99.90;;;;;;5056730;28;20007;-90
2021/07/16 01:25:12;;;;;;;;;;;17.00;99.90;;;;;;5068482;28;19924;-89
2021/07/16 01:27:38;;;;;;;;;;;17.00;99.90;;;;;;5074376;28;19951;-90
2021/07/16 01:30:06;;;;;;;;;;;17.00;99.90;;;;;;5091465;28;19989;-89
2021/07/16 01:32:31;;;;;;;;;;;17.00;99.90;;;;;;5091971;28;19952;-90
2021/07/16 01:34:57;;;;;;;;;;;16.90;99.90;;;;;;5056875;28;19971;-89
2021/07/16 01:37:23;;;;;;;;;;;17.00;99.90;;;;;;5074319;28;19928;-90
2021/07/16 01:39:48;;;;;;;;;;;17.00;99.90;;;;;;5091202;28;19981;-90
2021/07/16 01:42:14;;;;;;;;;;;17.00;99.90;;;;;;5073967;28;19926;-89
2021/07/16 01:44:41;;;;;;;;;;;16.90;99.90;;;;;;5056828;28;19985;-89
2021/07/16 01:47:07;;;;;;;;;;;17.00;99.90;;;;;;5073194;28;20390;-89
2021/07/16 01:49:33;;;;;;;;;;;17.00;99.90;;;;;;5064274;28;19950;-89
2021/07/16 01:51:59;;;;;;;;;;;17.00;99.90;;;;;;5056100;28;20382;-89
2021/07/16 01:54:25;;;;;;;;;;;17.00;99.90;;;;;;5091289;28;20036;-89
2021/07/16 01:56:51;;;;;;;;;;;17.00;99.90;;;;;;5090184;28;19941;-88
2021/07/16 01:59:17;;;;;;;;;;;17.00;99.90;;;;;;5066318;28;19924;-90
2021/07/16 02:01:42;;;;;;;;;;;16.90;99.90;;;;;;5073071;28;19931;-89
2021/07/16 02:04:10;;;;;;;;;;;16.90;99.90;;;;;;5084814;28;19967;-89
2021/07/16 02:06:36;;;;;;;;;;;16.90;99.90;;;;;;5073324;28;20303;-91
2021/07/16 02:09:03;;;;;;;;;;;16.90;99.90;;;;;;5072092;28;19924;-90
2021/07/16 02:11:29;;;;;;;;;;;16.90;99.90;;;;;;5073635;28;19986;-88
2021/07/16 02:13:55;;;;;;;;;;;16.90;99.90;;;;;;5089242;28;19931;-88
2021/07/16 02:16:23;;;;;;;;;;;16.90;99.90;;;;;;5073253;28;19931;-89
2021/07/16 02:18:49;;;;;;;;;;;16.90;99.90;;;;;;5084134;28;19924;-89
2021/07/16 02:21:16;;;;;;;;;;;16.90;99.90;;;;;;5071787;28;20383;-89
2021/07/16 02:23:41;;;;;;;;;;;16.90;99.90;;;;;;5089774;28;19924;-89
2021/07/16 02:26:07;;;;;;;;;;;16.90;99.90;;;;;;5055910;28;19950;-89
2021/07/16 02:28:33;;;;;;;;;;;16.90;99.90;;;;;;5089824;28;19972;-89
2021/07/16 02:31:00;;;;;;;;;;;16.90;99.90;;;;;;5055218;28;19931;-90
2021/07/16 02:33:26;;;;;;;;;;;16.90;99.90;;;;;;5073174;28;20383;-90
2021/07/16 02:35:52;;;;;;;;;;;16.90;99.90;;;;;;5072851;28;20703;-89
2021/07/16 02:38:18;;;;;;;;;;;17.00;99.90;;;;;;5057001;28;19931;-91
2021/07/16 02:40:44;;;;;;;;;;;16.90;99.90;;;;;;5062238;28;20018;-89
2021/07/16 02:43:10;;;;;;;;;;;17.00;99.90;;;;;;5070022;28;19932;-91
2021/07/16 02:45:36;;;;;;;;;;;17.00;99.90;;;;;;5058731;28;19939;-91
2021/07/16 02:48:03;;;;;;;;;;;17.00;99.90;;;;;;5055937;28;19939;-90
2021/07/16 02:50:30;;;;;;;;;;;16.90;99.90;;;;;;5046170;28;19943;-89
2021/07/16 02:52:56;;;;;;;;;;;17.00;99.90;;;;;;5058574;28;19983;-90
2021/07/16 02:55:23;;;;;;;;;;;17.00;99.90;;;;;;5047877;28;20381;-90
2021/07/16 02:57:49;;;;;;;;;;;17.00;99.90;;;;;;5045536;28;19925;-89
2021/07/16 03:00:16;;;;;;;;;;;17.00;99.90;;;;;;5058035;28;20582;-89
2021/07/16 03:02:46;;;;;;;;;;;17.00;99.90;;;;;;5054727;28;19975;-90
2021/07/16 03:05:15;;;;;;;;;;;17.00;99.90;;;;;;5061385;28;20423;-89
2021/07/16 03:07:41;;;;;;;;;;;17.00;99.90;;;;;;5063572;28;20024;-88
2021/07/16 03:10:08;;;;;;;;;;;17.00;99.90;;;;;;5053653;28;19965;-89
2021/07/16 03:12:35;;;;;;;;;;;17.00;99.90;;;;;;5050008;28;20444;-89
2021/07/16 03:15:00;;;;;;;;;;;17.00;99.90;;;;;;5049130;28;19935;-91
2021/07/16 03:17:26;;;;;;;;;;;17.00;99.90;;;;;;5050611;28;20276;-91
2021/07/16 03:19:52;;;;;;;;;;;17.00;99.90;;;;;;5048360;28;19928;-90
2021/07/16 03:22:17;;;;;;;;;;;17.00;99.90;;;;;;5048751;28;19975;-91
2021/07/16 03:24:43;;;;;;;;;;;17.00;99.90;;;;;;5064889;28;20027;-90
2021/07/16 03:27:09;;;;;;;;;;;17.00;99.90;;;;;;5048312;28;19932;-90
2021/07/16 03:29:34;;;;;;;;;;;17.00;99.90;;;;;;5048746;28;19952;-90
2021/07/16 03:32:01;;;;;;;;;;;17.00;99.90;;;;;;5066237;28;20019;-89
2021/07/16 03:34:27;;;;;;;;;;;17.00;99.90;;;;;;5044357;28;19925;-89
2021/07/16 03:36:52;;;;;;;;;;;17.00;99.90;;;;;;5054857;28;19928;-89
2021/07/16 03:39:18;;;;;;;;;;;17.00;99.90;;;;;;5048539;28;20343;-89
2021/07/16 03:41:43;;;;;;;;;;;17.00;99.90;;;;;;5043766;28;20024;-90
2021/07/16 03:44:10;;;;;;;;;;;17.00;99.90;;;;;;5060602;28;19933;-91
2021/07/16 03:46:36;;;;;;;;;;;17.00;99.90;;;;;;5056426;28;19959;-91
2021/07/16 03:49:02;;;;;;;;;;;17.10;99.90;;;;;;5069464;28;19959;-90
2021/07/16 03:51:28;;;;;;;;;;;17.00;99.90;;;;;;5066993;28;19929;-90
2021/07/16 03:53:54;;;;;;;;;;;17.00;99.90;;;;;;5067905;28;19925;-89
2021/07/16 03:56:20;;;;;;;;;;;17.00;99.90;;;;;;5086654;28;19929;-90
2021/07/16 03:58:46;;;;;;;;;;;17.00;99.90;;;;;;5071858;28;19928;-90
2021/07/16 04:01:13;;;;;;;;;;;17.00;99.90;;;;;;5086519;28;19928;-90
2021/07/16 04:03:38;;;;;;;;;;;17.00;99.90;;;;;;5067969;28;19994;-90
2021/07/16 04:06:04;;;;;;;;;;;17.00;99.90;;;;;;5077680;28;20379;-89
2021/07/16 04:08:34;;;;;;;;;;;17.00;99.90;;;;;;5071914;28;19931;-89
2021/07/16 04:11:00;;;;;;;;;;;17.00;99.90;;;;;;5072165;28;19931;-89
2021/07/16 04:13:25;;;;;;;;;;;17.00;99.90;;;;;;5073364;28;19928;-90
2021/07/16 04:15:51;;;;;;;;;;;17.00;99.90;;;;;;5088369;28;19964;-91
2021/07/16 04:18:18;;;;;;;;;;;17.00;99.90;;;;;;5083368;28;19925;-90
2021/07/16 04:20:43;;;;;;;;;;;17.00;99.90;;;;;;5071274;28;19936;-90
2021/07/16 04:23:09;;;;;;;;;;;17.00;99.90;;;;;;5071530;28;19924;-90
2021/07/16 04:25:35;;;;;;;;;;;17.00;99.90;;;;;;5072109;28;20033;-90
2021/07/16 04:28:03;;;;;;;;;;;17.00;99.90;;;;;;5071307;28;20003;-91
2021/07/16 04:30:29;;;;;;;;;;;17.00;99.90;;;;;;5073048;28;19924;-90
2021/07/16 04:32:57;;;;;;;;;;;17.00;99.90;;;;;;5071600;28;20549;-90
2021/07/16 04:35:22;;;;;;;;;;;17.00;99.90;;;;;;5055213;28;19924;-89
2021/07/16 04:37:48;;;;;;;;;;;17.10;99.90;;;;;;5071616;28;19977;-89
2021/07/16 04:40:16;;;;;;;;;;;17.00;99.90;;;;;;5070745;28;19931;-89
2021/07/16 04:42:42;;;;;;;;;;;17.00;99.90;;;;;;5072718;28;19924;-89
2021/07/16 04:45:08;;;;;;;;;;;17.00;99.90;;;;;;5075096;28;19978;-90
2021/07/16 04:47:34;;;;;;;;;;;16.90;99.90;;;;;;5052078;28;20399;-91
2021/07/16 04:49:59;;;;;;;;;;;17.00;99.90;;;;;;5051632;28;19935;-90
2021/07/16 04:52:29;;;;;;;;;;;17.00;99.90;;;;;;5052741;28;19932;-90
2021/07/16 04:54:55;;;;;;;;;;;17.10;99.90;;;;;;5051161;28;20304;-90
2021/07/16 04:57:21;;;;;;;;;;;17.10;99.90;;;;;;5067651;28;20031;-89
2021/07/16 04:59:47;;;;;;;;;;;17.00;99.90;;;;;;5056570;28;20008;-90
2021/07/16 05:02:13;;;;;;;;;;;17.10;99.90;;;;;;5050262;28;20369;-89
2021/07/16 05:04:39;;;;;;;;;;;17.10;99.90;;;;;;5051094;28;19925;-89
2021/07/16 05:07:04;;;;;;;;;;;17.10;99.90;;;;;;5062735;28;19925;-89
2021/07/16 05:09:30;;;;;;;;;;;17.10;99.90;;;;;;5040284;28;20011;-89
2021/07/16 05:11:56;;;;;;;;;;;17.10;99.90;;;;;;5051690;28;19986;-90
2021/07/16 05:14:21;;;;;;;;;;;17.10;99.90;;;;;;5049232;28;20383;-89
2021/07/16 05:16:47;;;;;;;;;;;17.10;99.90;;;;;;5050461;28;19929;-90
2021/07/16 05:19:14;;;;;;;;;;;17.10;99.90;;;;;;5062678;28;19925;-90
2021/07/16 05:21:39;;;;;;;;;;;17.10;99.90;;;;;;5059330;28;20376;-90
2021/07/16 05:24:05;;;;;;;;;;;17.10;99.90;;;;;;5044858;28;19959;-90
2021/07/16 05:26:31;;;;;;;;;;;17.10;99.90;;;;;;5051040;28;19995;-90
2021/07/16 05:28:57;;;;;;;;;;;17.10;99.90;;;;;;5050455;28;20410;-89
2021/07/16 05:31:23;;;;;;;;;;;17.10;99.90;;;;;;5050645;28;19983;-93
2021/07/16 05:33:48;;;;;;;;;;;17.20;99.90;;;;;;5061568;28;19935;-90
2021/07/16 05:36:14;;;;;;;;;;;17.10;99.90;;;;;;5063686;28;20257;-93
2021/07/16 05:38:40;;;;;;;;;;;17.20;99.90;;;;;;5053045;28;19986;-94
2021/07/16 05:41:07;;;;;;;;;;;17.20;99.90;;;;;;5052599;28;19936;-91
2021/07/16 05:43:33;;;;;;;;;;;17.20;99.90;;;;;;5051737;28;20579;-92
2021/07/16 05:45:59;;;;;;;;;;;17.20;99.90;;;;;;5059425;28;20441;-92
2021/07/16 05:48:25;;;;;;;;;;;17.20;99.90;;;;;;5051858;28;19933;-95
2021/07/16 05:50:51;;;;;;;;;;;17.20;99.90;;;;;;5050314;28;20012;-89
2021/07/16 05:53:17;;;;;;;;;;;17.30;99.90;;;;;;5048896;28;19975;-90
2021/07/16 05:55:43;;;;;;;;;;;17.30;99.90;;;;;;5050012;28;20386;-91
2021/07/16 05:58:09;;;;;;;;;;;17.30;99.90;;;;;;5030515;28;20012;-92
2021/07/16 06:00:35;;;;;;;;;;;17.40;99.90;;;;;;5050772;28;20050;-90
2021/07/16 06:03:01;;;;;;;;;;;17.40;99.90;;;;;;5049912;28;19925;-90
2021/07/16 06:05:28;;;;;;;;;;;17.40;99.90;;;;;;5049899;28;19931;-91
2021/07/16 06:07:54;;;;;;;;;;;17.40;99.90;;;;;;5051104;28;20331;-92
2021/07/16 06:10:20;;;;;;;;;;;17.40;99.90;;;;;;5065457;28;19929;-91
2021/07/16 06:12:46;;;;;;;;;;;17.40;99.90;;;;;;5064736;28;19933;-93
2021/07/16 06:15:12;;;;;;;;;;;17.40;99.90;;;;;;5070963;28;19935;-91
2021/07/16 06:17:38;;;;;;;;;;;17.40;99.90;;;;;;5052200;28;19939;-90
2021/07/16 06:20:04;;;;;;;;;;;17.40;99.90;;;;;;5048114;28;19931;-89
2021/07/16 06:22:30;;;;;;;;;;;17.40;99.90;;;;;;5048518;28;20448;-89
2021/07/16 06:24:56;;;;;;;;;;;17.50;99.90;;;;;;5049925;28;19932;-89
2021/07/16 06:27:22;;;;;;;;;;;17.50;99.90;;;;;;5052381;28;20024;-91
2021/07/16 06:29:47;;;;;;;;;;;17.50;99.90;;;;;;5049230;28;19970;-88
2021/07/16 06:32:13;;;;;;;;;;;17.50;99.90;;;;;;5030542;28;20019;-88
2021/07/16 06:34:38;;;;;;;;;;;17.40;99.90;;;;;;5049597;28;20544;-88
2021/07/16 06:37:04;;;;;;;;;;;17.50;99.90;;;;;;5049180;28;19929;-89
2021/07/16 06:39:30;;;;;;;;;;;17.50;99.90;;;;;;5047231;28;19924;-89
2021/07/16 06:41:56;;;;;;;;;;;17.50;99.90;;;;;;5048924;28;20458;-88
2021/07/16 06:44:21;;;;;;;;;;;17.40;99.90;;;;;;5051102;28;19948;-88
2021/07/16 06:46:47;;;;;;;;;;;17.50;99.90;;;;;;5052308;28;20299;-89
2021/07/16 06:49:13;;;;;;;;;;;17.50;99.90;;;;;;5064705;28;20374;-88
2021/07/16 06:51:38;;;;;;;;;;;17.50;99.90;;;;;;5064312;28;19967;-88
2021/07/16 06:54:04;;;;;;;;;;;17.50;99.90;;;;;;5065252;28;20448;-90
2021/07/16 06:56:35;;;;;;;;;;;17.60;99.90;;;;;;5059683;28;19964;-88
2021/07/16 06:59:02;;;;;;;;;;;17.60;99.90;;;;;;5061083;28;19924;-89
2021/07/16 07:01:28;;;;;;;;;;;17.60;99.90;;;;;;5071425;28;20572;-90
2021/07/16 07:03:54;;;;;;;;;;;17.50;99.90;;;;;;5065226;28;19932;-88
2021/07/16 07:06:19;;;;;;;;;;;17.50;99.90;;;;;;5060872;28;19930;-91
2021/07/16 07:08:45;;;;;;;;;;;17.50;99.90;;;;;;5059404;28;20542;-89
2021/07/16 07:11:11;;;;;;;;;;;17.50;99.90;;;;;;5064055;28;19931;-88
2021/07/16 07:13:36;;;;;;;;;;;17.50;99.90;;;;;;5067839;28;20291;-91
2021/07/16 07:16:02;;;;;;;;;;;17.50;99.90;;;;;;5049804;28;19933;-90
2021/07/16 07:18:28;;;;;;;;;;;17.50;99.90;;;;;;5065590;28;19925;-92
2021/07/16 07:20:54;;;;;;;;;;;17.60;99.90;;;;;;5070325;28;19925;-93
2021/07/16 07:23:20;;;;;;;;;;;17.60;99.90;;;;;;5048844;28;20023;-90
2021/07/16 07:25:46;;;;;;;;;;;17.60;99.90;;;;;;5050619;28;20008;-88
2021/07/16 07:28:12;;;;;;;;;;;17.60;99.90;;;;;;5065953;28;20022;-89
2021/07/16 07:30:37;;;;;;;;;;;17.60;99.90;;;;;;5062351;28;20513;-89
2021/07/16 07:33:04;;;;;;;;;;;17.70;99.90;;;;;;5067538;28;19929;-91
2021/07/16 07:35:31;;;;;;;;;;;17.70;99.90;;;;;;5058157;28;20325;-90
2021/07/16 07:37:57;;;;;;;;;;;17.80;99.90;;;;;;5069855;28;19925;-92
2021/07/16 07:40:23;;;;;;;;;;;17.80;99.90;;;;;;5048934;28;20269;-91
2021/07/16 07:42:49;;;;;;;;;;;17.90;99.90;;;;;;5074495;28;19944;-91
2021/07/16 07:45:14;;;;;;;;;;;17.90;99.90;;;;;;5064650;28;19928;-89
2021/07/16 07:47:40;;;;;;;;;;;17.90;99.90;;;;;;5092623;28;19928;-89
2021/07/16 07:50:09;;;;;;;;;;;18.00;99.90;;;;;;5092491;28;19934;-90
2021/07/16 07:52:35;;;;;;;;;;;18.00;99.90;;;;;;5073345;28;19959;-90
2021/07/16 07:55:00;;;;;;;;;;;18.20;99.90;;;;;;5073788;28;20523;-90
2021/07/16 07:57:26;;;;;;;;;;;18.30;99.90;;;;;;5091732;28;20383;-90
2021/07/16 07:59:53;;;;;;;;;;;18.40;99.90;;;;;;5058573;28;19928;-90
2021/07/16 08:02:18;;;;;;;;;;;18.60;99.90;;;;;;5073618;28;19946;-91
2021/07/16 08:04:44;;;;;;;;;;;18.90;99.90;;;;;;5092539;28;19928;-90
2021/07/16 08:07:10;;;;;;;;;;;19.10;99.90;;;;;;5074443;28;19931;-90
2021/07/16 08:09:35;;;;;;;;;;;19.20;99.90;;;;;;5051131;28;20384;-89
2021/07/16 08:12:02;;;;;;;;;;;19.40;99.90;;;;;;5067315;28;19924;-90
2021/07/16 08:14:28;;;;;;;;;;;19.50;99.90;;;;;;5073382;28;19927;-91
2021/07/16 08:16:54;;;;;;;;;;;19.50;99.90;;;;;;5074342;28;19969;-90
2021/07/16 08:19:20;;;;;;;;;;;19.40;99.90;;;;;;5055919;28;20402;-90
2021/07/16 08:21:49;;;;;;;;;;;19.30;99.90;;;;;;5074288;28;19982;-91
2021/07/16 08:24:15;;;;;;;;;;;19.20;99.90;;;;;;5073458;28;19939;-89
2021/07/16 08:26:42;;;;;;;;;;;19.20;99.90;;;;;;5090220;28;19935;-88
2021/07/16 08:29:08;;;;;;;;;;;19.20;99.90;;;;;;5074384;28;19928;-88
2021/07/16 08:31:34;;;;;;;;;;;19.20;99.90;;;;;;5073202;28;19924;-88
2021/07/16 08:33:59;;;;;;;;;;;19.10;99.90;;;;;;5073939;28;19931;-87
2021/07/16 08:36:25;;;;;;;;;;;19.10;99.90;;;;;;5073116;28;19984;-90
2021/07/16 08:38:51;;;;;;;;;;;19.20;99.90;;;;;;5056450;28;19927;-88
2021/07/16 08:41:16;;;;;;;;;;;19.10;99.90;;;;;;5072347;28;20383;-89
2021/07/16 08:43:43;;;;;;;;;;;19.10;99.90;;;;;;5069182;28;19924;-90
2021/07/16 08:46:09;;;;;;;;;;;19.10;99.90;;;;;;5058205;28;19979;-90
2021/07/16 08:48:36;;;;;;;;;;;19.20;99.90;;;;;;5073304;28;19924;-90
2021/07/16 08:51:02;;;;;;;;;;;19.20;99.90;;;;;;5074170;28;19924;-90
2021/07/16 08:53:28;;;;;;;;;;;19.20;99.90;;;;;;5090641;28;19946;-90
2021/07/16 08:55:54;;;;;;;;;;;19.30;99.90;;;;;;5056811;28;19924;-90
2021/07/16 08:58:20;;;;;;;;;;;19.30;99.90;;;;;;5056893;28;19946;-89
2021/07/16 09:00:46;;;;;;;;;;;19.20;99.90;;;;;;5073882;28;19935;-90
2021/07/16 09:03:12;;;;;;;;;;;19.20;99.90;;;;;;5072585;28;19924;-90
2021/07/16 09:05:39;;;;;;;;;;;19.20;99.90;;;;;;5072597;28;19920;-91
2021/07/16 09:08:13;;;;;;;;;;;19.10;99.90;;;;;;5073779;28;19928;-89
2021/07/16 09:10:43;;;;;;;;;;;19.00;99.90;;;;;;5071975;28;20005;-90
2021/07/16 09:13:09;;;;;;;;;;;19.10;99.90;;;;;;5091871;28;19928;-91
2021/07/16 09:15:34;;;;;;;;;;;19.20;99.90;;;;;;5062178;28;19928;-90
2021/07/16 09:18:10;;;;;;;;;;;19.20;99.90;;;;;;5042883;28;19989;-90
2021/07/16 09:20:36;;;;;;;;;;;19.20;99.90;;;;;;5072938;28;19989;-90
2021/07/16 09:23:08;;;;;;;;;;;19.20;99.90;;;;;;5073129;28;19924;-90
2021/07/16 09:25:34;;;;;;;;;;;19.20;99.90;;;;;;5088623;28;19931;-90
2021/07/16 09:28:00;;;;;;;;;;;19.10;99.90;;;;;;5089294;28;19933;-90
2021/07/16 09:30:26;;;;;;;;;;;19.10;99.90;;;;;;5055925;28;19952;-90
2021/07/16 09:32:53;;;;;;;;;;;19.10;99.90;;;;;;5091350;28;19928;-90
2021/07/16 09:35:27;;;;;;;;;;;19.10;99.90;;;;;;5087062;28;20042;-89
2021/07/16 09:37:52;;;;;;;;;;;19.10;99.90;;;;;;5073054;28;20384;-90
2021/07/16 09:40:22;;;;;;;;;;;19.10;99.90;;;;;;5089766;28;19924;-89
2021/07/16 09:42:47;;;;;;;;;;;19.30;99.90;;;;;;5072666;28;20436;-90
2021/07/16 09:45:13;;;;;;;;;;;19.40;99.90;;;;;;5068607;28;19924;-90
2021/07/16 09:47:39;;;;;;;;;;;19.40;99.90;;;;;;5090297;28;19977;-90
2021/07/16 09:50:07;;;;;;;;;;;19.40;99.90;;;;;;5058770;28;19963;-90
2021/07/16 09:52:33;;;;;;;;;;;19.30;99.90;;;;;;5072085;28;19928;-90
2021/07/16 09:55:05;;;;;;;;;;;19.30;99.90;;;;;;5072233;28;19947;-89
2021/07/16 09:57:40;;;;;;;;;;;19.40;99.90;;;;;;5085760;28;20375;-90
2021/07/16 10:00:12;;;;;;;;;;;19.50;99.90;;;;;;5085024;28;20022;-89
2021/07/16 10:02:38;;;;;;;;;;;19.60;99.90;;;;;;5072014;28;20457;-88
2021/07/16 10:05:04;;;;;;;;;;;19.80;99.90;;;;;;5072164;28;19928;-88
2021/07/16 10:07:30;;;;;;;;;;;19.90;99.90;;;;;;5088365;28;19955;-89
2021/07/16 10:09:56;;;;;;;;;;;19.90;99.90;;;;;;5057596;28;20477;-88
2021/07/16 10:12:22;;;;;;;;;;;19.70;99.90;;;;;;5072329;28;19928;-87
2021/07/16 10:14:48;;;;;;;;;;;19.70;99.90;;;;;;5085419;28;19967;-88
2021/07/16 10:17:14;;;;;;;;;;;19.70;99.90;;;;;;5055464;28;20390;-89
2021/07/16 10:19:40;;;;;;;;;;;19.70;99.90;;;;;;5089381;28;19924;-89
2021/07/16 10:22:06;;;;;;;;;;;19.80;99.90;;;;;;5089064;28;20289;-88
2021/07/16 10:24:34;;;;;;;;;;;19.80;99.90;;;;;;5071200;28;19930;-88
2021/07/16 10:27:02;;;;;;;;;;;19.80;99.90;;;;;;5072549;28;19924;-89
2021/07/16 10:29:35;;;;;;;;;;;19.80;99.90;;;;;;5089324;28;19928;-88
2021/07/16 10:32:01;;;;;;;;;;;19.80;99.90;;;;;;5090123;28;19928;-88
2021/07/16 10:34:31;;;;;;;;;;;19.90;99.90;;;;;;5087704;28;19932;-86
2021/07/16 10:36:58;;;;;;;;;;;20.00;99.90;;;;;;5089863;28;19932;-88
2021/07/16 10:39:42;;;;;;;;;;;20.00;99.90;;;;;;5090036;28;19950;-87
2021/07/16 10:42:27;;;;;;;;;;;20.00;99.90;;;;;;5087788;28;19931;-87
2021/07/16 10:44:53;;;;;;;;;;;20.10;99.90;;;;;;5069345;28;20070;-87
2021/07/16 10:47:39;;;;;;;;;;;20.10;99.90;;;;;;5087211;28;19931;-86
2021/07/16 10:50:12;;;;;;;;;;;20.20;99.90;;;;;;5069934;28;19957;-87
2021/07/16 10:52:45;;;;;;;;;;;20.20;99.90;;;;;;5070330;28;19924;-87
2021/07/16 10:55:11;;;;;;;;;;;20.40;99.90;;;;;;5070761;28;19977;-87
2021/07/16 10:57:55;;;;;;;;;;;20.40;99.90;;;;;;5088317;28;19967;-87
2021/07/16 11:00:36;;;;;;;;;;;20.60;99.90;;;;;;5087595;28;19924;-87
2021/07/16 11:03:21;;;;;;;;;;;20.60;99.90;;;;;;5071018;28;19930;-87
2021/07/16 11:05:47;;;;;;;;;;;20.80;99.90;;;;;;5069683;28;20042;-88
2021/07/16 11:08:48;;;;;;;;;;;20.90;99.90;;;;;;5089463;28;20522;-89
2021/07/16 11:11:16;;;;;;;;;;;21.00;99.90;;;;;;5088641;28;19928;-87
2021/07/16 11:13:45;;;;;;;;;;;21.10;99.90;;;;;;5067935;28;19925;-87
2021/07/16 11:16:18;;;;;;;;;;;21.00;99.90;;;;;;5070313;28;20012;-87
2021/07/16 11:19:03;;;;;;;;;;;21.00;99.90;;;;;;5067396;28;19938;-88
2021/07/16 11:21:52;;;;;;;;;;;21.30;99.90;;;;;;5087714;28;19928;-88
2021/07/16 11:24:18;;;;;;;;;;;21.20;99.90;;;;;;5070967;28;19970;-87
2021/07/16 11:26:51;;;;;;;;;;;21.20;99.90;;;;;;5069414;28;19924;-87
2021/07/16 11:29:18;;;;;;;;;;;21.20;99.90;;;;;;5070388;28;19932;-86
2021/07/16 11:31:44;;;;;;;;;;;21.00;99.90;;;;;;5068859;28;19924;-88
2021/07/16 11:34:13;;;;;;;;;;;21.20;99.90;;;;;;5070615;28;20368;-87
2021/07/16 11:36:51;;;;;;;;;;;21.20;99.90;;;;;;5083431;28;19955;-86
2021/07/16 11:39:31;;;;;;;;;;;21.10;99.90;;;;;;5088780;28;19940;-87
2021/07/16 11:41:57;;;;;;;;;;;21.10;99.90;;;;;;5069962;28;19928;-88
2021/07/16 11:44:34;;;;;;;;;;;21.20;99.90;;;;;;5070328;28;19924;-88
2021/07/16 11:47:12;;;;;;;;;;;21.40;99.90;;;;;;5068573;28;20391;-87
2021/07/16 11:49:41;;;;;;;;;;;21.50;99.90;;;;;;5088256;28;20041;-88
2021/07/16 11:52:07;;;;;;;;;;;21.30;99.90;;;;;;5070897;28;19986;-87
2021/07/16 11:54:33;;;;;;;;;;;21.10;99.90;;;;;;5070217;28;20009;-87
2021/07/16 11:56:59;;;;;;;;;;;21.00;99.90;;;;;;5070062;28;19924;-86
2021/07/16 11:59:26;;;;;;;;;;;21.20;99.90;;;;;;5070300;28;19975;-87
2021/07/16 12:02:04;;;;;;;;;;;21.20;99.90;;;;;;5087145;28;20501;-86
2021/07/16 12:04:31;;;;;;;;;;;21.40;99.90;;;;;;5070619;28;19924;-87
2021/07/16 12:06:56;;;;;;;;;;;21.40;99.90;;;;;;5039436;28;19943;-88
2021/07/16 12:09:32;;;;;;;;;;;21.60;99.90;;;;;;5070422;28;19924;-88
2021/07/16 12:12:15;;;;;;;;;;;21.70;99.90;;;;;;5069264;28;19924;-87
2021/07/16 12:14:53;;;;;;;;;;;21.80;99.90;;;;;;5056453;28;19931;-87
2021/07/16 12:17:20;;;;;;;;;;;21.90;99.90;;;;;;5070310;28;20066;-87
2021/07/16 12:19:46;;;;;;;;;;;21.90;99.90;;;;;;5073758;28;19924;-87
2021/07/16 12:22:13;;;;;;;;;;;21.70;99.90;;;;;;5064937;28;20323;-87
2021/07/16 12:24:39;;;;;;;;;;;21.60;99.90;;;;;;5073032;28;20443;-87
2021/07/16 12:27:06;;;;;;;;;;;21.50;99.90;;;;;;5073143;28;19928;-86
2021/07/16 12:29:31;;;;;;;;;;;21.60;99.90;;;;;;5074304;28;19936;-87
2021/07/16 12:31:57;;;;;;;;;;;21.80;99.90;;;;;;5070284;28;19920;-86
2021/07/16 12:34:24;;;;;;;;;;;21.90;99.90;;;;;;5073072;28;19924;-86
2021/07/16 12:36:50;;;;;;;;;;;22.00;99.90;;;;;;5088385;28;19939;-87
2021/07/16 12:39:22;;;;;;;;;;;22.10;99.90;;;;;;5090232;28;20395;-87
2021/07/16 12:41:48;;;;;;;;;;;22.00;99.90;;;;;;5072747;28;19931;-87
2021/07/16 12:44:15;;;;;;;;;;;22.20;99.90;;;;;;5074033;28;19925;-87
2021/07/16 12:46:41;;;;;;;;;;;22.40;99.90;;;;;;5072831;28;20530;-87
2021/07/16 12:49:08;;;;;;;;;;;22.30;99.90;;;;;;5065069;28;19955;-87
2021/07/16 12:51:39;;;;;;;;;;;22.30;99.90;;;;;;5086035;28;19928;-88
2021/07/16 12:54:05;;;;;;;;;;;22.30;99.90;;;;;;5090534;28;19928;-87
2021/07/16 12:56:38;;;;;;;;;;;22.20;99.90;;;;;;5072447;28;19946;-87
2021/07/16 12:59:28;;;;;;;;;;;21.80;99.90;;;;;;5073001;28;20018;-88
2021/07/16 13:01:56;;;;;;;;;;;21.70;99.90;;;;;;5071739;28;19924;-88
2021/07/16 13:04:22;;;;;;;;;;;21.60;99.90;;;;;;5073456;28;19928;-88
2021/07/16 13:06:50;;;;;;;;;;;21.50;99.90;;;;;;5087196;28;20273;-88
2021/07/16 13:09:17;;;;;;;;;;;21.50;99.90;;;;;;5073331;28;19924;-89
2021/07/16 13:11:43;;;;;;;;;;;21.40;99.90;;;;;;5072037;28;20203;-88
2021/07/16 13:14:25;;;;;;;;;;;21.60;99.90;;;;;;5091455;28;19927;-88
2021/07/16 13:17:11;;;;;;;;;;;21.50;99.90;;;;;;5072414;28;19934;-88
2021/07/16 13:19:37;;;;;;;;;;;21.40;99.90;;;;;;5072865;28;19932;-88
2021/07/16 13:22:02;;;;;;;;;;;21.30;99.90;;;;;;5072278;28;19927;-87
2021/07/16 13:24:28;;;;;;;;;;;21.50;99.90;;;;;;5073407;28;19924;-87
2021/07/16 13:26:58;;;;;;;;;;;21.90;99.90;;;;;;5089795;28;20030;-88
2021/07/16 13:29:23;;;;;;;;;;;22.00;99.90;;;;;;5090440;28;19981;-87
2021/07/16 13:31:49;;;;;;;;;;;21.90;99.90;;;;;;5083279;28;19928;-88
2021/07/16 13:34:14;;;;;;;;;;;21.90;99.90;;;;;;5072980;28;19924;-88
2021/07/16 13:36:40;;;;;;;;;;;21.80;99.90;;;;;;5063209;28;19928;-88
2021/07/16 13:39:06;;;;;;;;;;;21.90;99.90;;;;;;5072142;28;19977;-88
2021/07/16 13:41:31;;;;;;;;;;;21.80;99.90;;;;;;5072459;28;19924;-87
2021/07/16 13:43:57;;;;;;;;;;;21.70;99.90;;;;;;5071471;28;19950;-88
2021/07/16 13:46:23;;;;;;;;;;;21.80;99.90;;;;;;5065586;28;20027;-89
2021/07/16 13:48:48;;;;;;;;;;;21.70;99.90;;;;;;5071523;28;19932;-88
2021/07/16 13:51:15;;;;;;;;;;;21.90;99.90;;;;;;5056135;28;20443;-87
2021/07/16 13:53:41;;;;;;;;;;;21.90;99.90;;;;;;5090526;28;20022;-88
2021/07/16 13:56:07;;;;;;;;;;;21.90;99.90;;;;;;5068509;28;20038;-88
2021/07/16 13:58:33;;;;;;;;;;;22.20;99.90;;;;;;5055187;28;19928;-88
2021/07/16 14:00:58;;;;;;;;;;;22.00;99.90;;;;;;5088446;28;19924;-88
2021/07/16 14:03:24;;;;;;;;;;;21.80;99.90;;;;;;5090410;28;19937;-88
2021/07/16 14:05:49;;;;;;;;;;;21.70;99.90;;;;;;5060713;28;19993;-88
2021/07/16 14:08:16;;;;;;;;;;;21.70;99.90;;;;;;5055700;28;19924;-88
2021/07/16 14:10:42;;;;;;;;;;;21.60;99.90;;;;;;5088861;28;19931;-88
2021/07/16 14:13:08;;;;;;;;;;;21.50;99.90;;;;;;5083637;28;19926;-88
2021/07/16 14:15:33;;;;;;;;;;;21.60;99.90;;;;;;5071039;28;19932;-88
2021/07/16 14:17:59;;;;;;;;;;;21.60;99.90;;;;;;5057289;28;20768;-88